createdAt,value
2023-01-18T00:00:44.356Z,94218.06
2023-01-18T00:02:47.165Z,94220.78
2023-01-18T00:04:49.741Z,94216.38
2023-01-18T00:06:52.444Z,94224.19
2023-01-18T00:08:55.895Z,94222.28
2023-01-18T00:11:03.449Z,94223.22
2023-01-18T00:13:06.447Z,94225.78
2023-01-18T00:15:10.427Z,94226.69
2023-01-18T00:17:14.400Z,94223.94
2023-01-18T00:19:17.097Z,94229.66
2023-01-18T00:21:19.684Z,94227.91
2023-01-18T00:23:22.218Z,94233.91
2023-01-18T00:25:25.835Z,94228.00
2023-01-18T00:27:28.345Z,94234.88
2023-01-18T00:29:31.420Z,94238.38
2023-01-18T00:31:34.002Z,94234.00
2023-01-18T00:33:37.965Z,94238.38
2023-01-18T00:35:40.548Z,94238.38
2023-01-18T00:37:45.043Z,94237.63
2023-01-18T00:39:47.609Z,94235.06
2023-01-18T00:42:04.087Z,94243.69
2023-01-18T00:44:07.139Z,94236.97
2023-01-18T00:46:11.397Z,94236.31
2023-01-18T00:48:14.045Z,94234.00
2023-01-18T00:50:19.516Z,94236.72
2023-01-18T00:52:22.098Z,94233.50
2023-01-18T00:54:24.677Z,94236.88
2023-01-18T00:56:28.671Z,94232.41
2023-01-18T00:58:31.614Z,94239.31
2023-01-18T01:00:34.581Z,94238.38
2023-01-18T01:02:39.737Z,94250.25
2023-01-18T01:04:59.689Z,94244.94
2023-01-18T01:07:03.590Z,94252.41
2023-01-18T01:09:06.152Z,94252.31
2023-01-18T01:11:11.148Z,94253.06
2023-01-18T01:13:31.743Z,94253.06
2023-01-18T01:15:52.136Z,94250.41
2023-01-18T01:18:12.346Z,94256.69
2023-01-18T01:20:33.301Z,94254.22
2023-01-18T01:22:55.054Z,94252.56
2023-01-18T01:25:15.470Z,94253.56
2023-01-18T01:27:18.440Z,94246.59
2023-01-18T01:29:20.988Z,94249.25
2023-01-18T01:31:23.565Z,94249.25
2023-01-18T01:33:26.159Z,94251.06
2023-01-18T01:35:28.729Z,94252.06
2023-01-18T01:37:31.316Z,94245.25
2023-01-18T01:39:35.255Z,94265.75
2023-01-18T01:41:38.124Z,94260.59
2023-01-18T01:43:44.778Z,94261.59
2023-01-18T01:45:49.676Z,94259.03
2023-01-18T01:47:53.906Z,94258.19
2023-01-18T01:50:01.715Z,94268.56
2023-01-18T01:52:06.661Z,94273.78
2023-01-18T01:54:14.026Z,94268.66
2023-01-18T01:56:19.608Z,94260.69
2023-01-18T01:58:26.978Z,94266.00
2023-01-18T02:00:30.319Z,94266.16
2023-01-18T02:02:35.203Z,94263.59
2023-01-18T02:04:38.827Z,94273.97
2023-01-18T02:06:41.893Z,94268.97
2023-01-18T02:08:47.265Z,94274.94
2023-01-18T02:10:50.235Z,94267.31
2023-01-18T02:12:55.192Z,94278.44
2023-01-18T02:14:59.308Z,94279.25
2023-01-18T02:17:17.132Z,94275.97
2023-01-18T02:19:54.401Z,94279.50
2023-01-18T02:22:01.376Z,94283.00
2023-01-18T02:24:41.819Z,94284.91
2023-01-18T02:27:00.235Z,94294.25
2023-01-18T02:29:12.156Z,94290.84
2023-01-18T02:31:18.363Z,94287.69
2023-01-18T02:33:31.840Z,94290.13
2023-01-18T02:35:44.896Z,94290.19
2023-01-18T02:37:57.132Z,94297.97
2023-01-18T02:40:12.484Z,94290.13
2023-01-18T02:42:37.696Z,94297.75
2023-01-18T02:45:02.756Z,94301.31
2023-01-18T02:47:08.118Z,94302.13
2023-01-18T02:49:13.321Z,94305.59
2023-01-18T02:51:15.837Z,94306.28
2023-01-18T02:53:18.799Z,94312.94
2023-01-18T02:55:29.625Z,94306.13
2023-01-18T02:57:32.264Z,94313.00
2023-01-18T02:59:42.068Z,94308.72
2023-01-18T03:01:49.897Z,94310.53
2023-01-18T03:03:56.297Z,94306.13
2023-01-18T03:06:01.721Z,94309.69
2023-01-18T03:08:10.362Z,94308.75
2023-01-18T03:10:15.217Z,94311.50
2023-01-18T03:12:25.425Z,94313.09
2023-01-18T03:14:40.117Z,94308.84
2023-01-18T03:16:58.871Z,94310.75
2023-01-18T03:19:05.776Z,94309.09
2023-01-18T03:21:08.471Z,94311.66
2023-01-18T03:23:35.231Z,94311.81
2023-01-18T03:25:41.502Z,94319.69
2023-01-18T03:28:05.403Z,94314.47
2023-01-18T03:30:27.665Z,94326.41
2023-01-18T03:32:52.880Z,94312.72
2023-01-18T03:34:59.827Z,94322.19
2023-01-18T03:37:05.570Z,94326.34
2023-01-18T03:39:11.807Z,94328.00
2023-01-18T03:41:15.162Z,94331.31
2023-01-18T03:43:23.469Z,94338.97
2023-01-18T03:45:32.104Z,94330.41
2023-01-18T03:47:36.407Z,94333.56
2023-01-18T03:49:39.189Z,94333.50
2023-01-18T03:51:54.013Z,94337.03
2023-01-18T03:54:06.602Z,94344.75
2023-01-18T03:56:16.872Z,94341.38
2023-01-18T03:58:23.616Z,94338.63
2023-01-18T04:00:26.644Z,94342.13
2023-01-18T04:02:29.794Z,94342.13
2023-01-18T04:04:33.831Z,94347.50
2023-01-18T04:06:36.418Z,94350.97
2023-01-18T04:08:38.992Z,94345.00
2023-01-18T04:10:43.774Z,94345.75
2023-01-18T04:12:46.394Z,94346.59
2023-01-18T04:14:48.956Z,94350.72
2023-01-18T04:16:51.510Z,94354.16
2023-01-18T04:18:54.091Z,94354.91
2023-01-18T04:20:57.982Z,94372.97
2023-01-18T04:23:00.906Z,94354.75
2023-01-18T04:25:03.710Z,94376.22
2023-01-18T04:27:06.255Z,94372.97
2023-01-18T04:29:09.082Z,94378.13
2023-01-18T04:31:14.327Z,94379.84
2023-01-18T04:33:17.903Z,94373.78
2023-01-18T04:35:20.461Z,94372.22
2023-01-18T04:37:30.252Z,94379.00
2023-01-18T04:39:32.831Z,94380.75
2023-01-18T04:41:35.427Z,94384.75
2023-01-18T04:43:38.148Z,94394.28
2023-01-18T04:45:40.746Z,94394.28
2023-01-18T04:47:43.412Z,94388.25
2023-01-18T04:49:46.070Z,94400.66
2023-01-18T04:51:48.675Z,94400.66
2023-01-18T04:53:52.906Z,94408.28
2023-01-18T04:55:55.562Z,94404.72
2023-01-18T04:57:58.196Z,94414.16
2023-01-18T05:00:02.244Z,94418.25
2023-01-18T05:02:04.950Z,94425.88
2023-01-18T05:04:07.592Z,94421.75
2023-01-18T05:06:12.433Z,94432.03
2023-01-18T05:08:14.970Z,94440.44
2023-01-18T05:10:20.192Z,94443.88
2023-01-18T05:12:22.774Z,94444.88
2023-01-18T05:14:25.392Z,94454.19
2023-01-18T05:16:28.098Z,94455.84
2023-01-18T05:18:31.118Z,94461.22
2023-01-18T05:20:33.706Z,94465.38
2023-01-18T05:22:37.140Z,94473.00
2023-01-18T05:24:39.750Z,94475.44
2023-01-18T05:26:43.658Z,94473.84
2023-01-18T05:28:47.005Z,94485.94
2023-01-18T05:30:50.153Z,94487.06
2023-01-18T05:32:52.729Z,94492.06
2023-01-18T05:34:55.398Z,94494.50
2023-01-18T05:36:58.741Z,94499.69
2023-01-18T05:39:01.380Z,94502.13
2023-01-18T05:41:04.323Z,94510.66
2023-01-18T05:43:08.226Z,94512.41
2023-01-18T05:45:11.605Z,94512.19
2023-01-18T05:47:14.199Z,94515.00
2023-01-18T05:49:16.835Z,94527.94
2023-01-18T05:51:19.358Z,94526.25
2023-01-18T05:53:23.211Z,94527.97
2023-01-18T05:55:25.871Z,94530.63
2023-01-18T05:57:28.445Z,94528.97
2023-01-18T05:59:32.352Z,94538.34
2023-01-18T06:01:35.335Z,94550.44
2023-01-18T06:03:37.965Z,94555.66
2023-01-18T06:05:40.508Z,94558.28
2023-01-18T06:07:43.303Z,94574.56
2023-01-18T06:09:45.821Z,94573.66
2023-01-18T06:11:48.346Z,94576.72
2023-01-18T06:13:51.301Z,94583.63
2023-01-18T06:15:55.696Z,94592.09
2023-01-18T06:17:59.317Z,94595.41
2023-01-18T06:20:01.985Z,94602.78
2023-01-18T06:22:04.614Z,94608.25
2023-01-18T06:24:07.720Z,94605.00
2023-01-18T06:26:10.264Z,94607.72
2023-01-18T06:28:13.027Z,94615.50
2023-01-18T06:30:16.457Z,94616.34
2023-01-18T06:32:20.391Z,94626.47
2023-01-18T06:34:22.920Z,94627.31
2023-01-18T06:36:25.593Z,94637.59
2023-01-18T06:38:29.716Z,94630.69
2023-01-18T06:40:32.349Z,94639.00
2023-01-18T06:42:34.919Z,94644.25
2023-01-18T06:44:37.554Z,94652.94
2023-01-18T06:46:40.127Z,94656.00
2023-01-18T06:48:44.055Z,94660.31
2023-01-18T06:50:46.651Z,94666.44
2023-01-18T06:52:49.473Z,94669.97
2023-01-18T06:54:52.018Z,94673.28
2023-01-18T06:56:54.595Z,94681.09
2023-01-18T06:58:58.846Z,94677.47
2023-01-18T07:01:02.416Z,94695.13
2023-01-18T07:03:05.222Z,94695.19
2023-01-18T07:05:09.793Z,94689.19
2023-01-18T07:07:12.541Z,94692.75
2023-01-18T07:09:15.168Z,94694.72
2023-01-18T07:11:18.653Z,94700.53
2023-01-18T07:13:22.110Z,94703.03
2023-01-18T07:15:24.683Z,94704.59
2023-01-18T07:17:27.249Z,94716.75
2023-01-18T07:19:29.787Z,94720.03
2023-01-18T07:21:33.695Z,94724.50
2023-01-18T07:23:38.117Z,94723.69
2023-01-18T07:25:40.637Z,94735.91
2023-01-18T07:27:43.608Z,94736.66
2023-01-18T07:29:47.687Z,94741.03
2023-01-18T07:31:51.987Z,94742.97
2023-01-18T07:33:54.626Z,94748.81
2023-01-18T07:35:58.653Z,94755.81
2023-01-18T07:38:02.555Z,94753.19
2023-01-18T07:40:06.017Z,94762.38
2023-01-18T07:42:09.056Z,94770.00
2023-01-18T07:44:11.842Z,94765.06
2023-01-18T07:46:16.938Z,94769.31
2023-01-18T07:48:19.548Z,94776.94
2023-01-18T07:50:22.551Z,94780.56
2023-01-18T07:52:25.622Z,94782.72
2023-01-18T07:54:29.559Z,94785.28
2023-01-18T07:56:32.099Z,94786.66
2023-01-18T07:58:35.804Z,94790.13
2023-01-18T08:00:38.381Z,94800.41
2023-01-18T08:02:40.972Z,94805.28
2023-01-18T08:04:45.185Z,94800.41
2023-01-18T08:06:47.712Z,94816.72
2023-01-18T08:08:50.333Z,94813.06
2023-01-18T08:10:56.960Z,94819.09
2023-01-18T08:12:59.916Z,94817.31
2023-01-18T08:15:02.719Z,94824.31
2023-01-18T08:17:06.334Z,94824.31
2023-01-18T08:19:08.889Z,94832.66
2023-01-18T08:21:12.341Z,94843.19
2023-01-18T08:23:15.746Z,94842.22
2023-01-18T08:25:18.363Z,94854.91
2023-01-18T08:27:22.497Z,94852.19
2023-01-18T08:29:25.153Z,94866.56
2023-01-18T08:31:28.022Z,94869.19
2023-01-18T08:33:30.892Z,94870.34
2023-01-18T08:35:35.712Z,94869.47
2023-01-18T08:37:38.716Z,94876.22
2023-01-18T08:39:41.290Z,94874.69
2023-01-18T08:41:43.961Z,94883.16
2023-01-18T08:43:50.727Z,94884.56
2023-01-18T08:45:53.348Z,94887.91
2023-01-18T08:48:00.275Z,94893.97
2023-01-18T08:50:02.819Z,94899.22
2023-01-18T08:52:05.859Z,94903.41
2023-01-18T08:54:08.457Z,94916.31
2023-01-18T08:56:11.716Z,94909.44
2023-01-18T08:58:14.300Z,94922.31
2023-01-18T09:00:19.222Z,94926.47
2023-01-18T09:02:21.827Z,94930.91
2023-01-18T09:04:24.812Z,94925.25
2023-01-18T09:06:31.946Z,94927.50
2023-01-18T09:08:34.959Z,94939.31
2023-01-18T09:10:38.701Z,94941.31
2023-01-18T09:12:41.837Z,94946.31
2023-01-18T09:14:44.418Z,94939.16
2023-01-18T09:16:48.325Z,94954.50
2023-01-18T09:18:50.978Z,94954.25
2023-01-18T09:20:54.401Z,94963.03
2023-01-18T09:22:57.312Z,94963.88
2023-01-18T09:25:00.112Z,94974.09
2023-01-18T09:27:02.902Z,94970.63
2023-01-18T09:29:05.449Z,94985.16
2023-01-18T09:31:09.713Z,94985.88
2023-01-18T09:33:16.653Z,94992.88
2023-01-18T09:35:19.197Z,95006.69
2023-01-18T09:37:21.829Z,95008.22
2023-01-18T09:39:24.580Z,95010.81
2023-01-18T09:41:33.132Z,95012.59
2023-01-18T09:43:39.075Z,95012.28
2023-01-18T09:45:44.427Z,95018.78
2023-01-18T09:47:50.119Z,95010.88
2023-01-18T09:49:57.328Z,95015.88
2023-01-18T09:52:13.173Z,95017.72
2023-01-18T09:54:32.577Z,95025.59
2023-01-18T09:56:45.183Z,95039.44
2023-01-18T09:58:58.192Z,95041.13
2023-01-18T10:01:05.910Z,95044.00
2023-01-18T10:03:18.121Z,95044.78
2023-01-18T10:05:25.065Z,95043.56
2023-01-18T10:07:31.976Z,95052.28
2023-01-18T10:09:39.600Z,95053.06
2023-01-18T10:11:49.030Z,95059.84
2023-01-18T10:13:58.455Z,95052.38
2023-01-18T10:16:02.557Z,95061.03
2023-01-18T10:18:05.263Z,95054.00
2023-01-18T10:20:16.267Z,95060.06
2023-01-18T10:22:24.565Z,95059.41
2023-01-18T10:24:45.847Z,95054.22
2023-01-18T10:26:49.956Z,95066.91
2023-01-18T10:29:00.275Z,95065.06
2023-01-18T10:31:15.414Z,95069.94
2023-01-18T10:33:23.128Z,95069.94
2023-01-18T10:35:30.899Z,95082.00
2023-01-18T10:37:42.676Z,95079.44
2023-01-18T10:39:48.692Z,95075.22
2023-01-18T10:41:52.307Z,95081.97
2023-01-18T10:43:55.180Z,95086.22
2023-01-18T10:45:57.838Z,95087.38
2023-01-18T10:48:19.621Z,95081.72
2023-01-18T10:50:24.605Z,95097.09
2023-01-18T10:52:30.189Z,95092.84
2023-01-18T10:54:34.085Z,95101.88
2023-01-18T10:56:36.736Z,95105.31
2023-01-18T10:58:44.800Z,95103.59
2023-01-18T11:00:54.452Z,95103.66
2023-01-18T11:02:58.870Z,95100.56
2023-01-18T11:05:07.620Z,95112.72
2023-01-18T11:07:10.314Z,95115.63
2023-01-18T11:09:42.292Z,95113.25
2023-01-18T11:12:02.563Z,95113.25
2023-01-18T11:14:24.491Z,95119.31
2023-01-18T11:16:30.027Z,95115.19
2023-01-18T11:18:32.761Z,95122.75
2023-01-18T11:20:39.775Z,95125.06
2023-01-18T11:22:54.711Z,95119.03
2023-01-18T11:24:58.859Z,95131.19
2023-01-18T11:27:03.396Z,95126.75
2023-01-18T11:29:07.814Z,95133.69
2023-01-18T11:31:12.890Z,95137.03
2023-01-18T11:33:19.523Z,95132.56
2023-01-18T11:35:29.136Z,95141.06
2023-01-18T11:37:35.285Z,95137.63
2023-01-18T11:39:39.278Z,95137.50
2023-01-18T11:41:43.344Z,95147.88
2023-01-18T11:43:56.274Z,95146.94
2023-01-18T11:46:04.403Z,95144.38
2023-01-18T11:48:13.936Z,95149.50
2023-01-18T11:50:28.896Z,95150.25
2023-01-18T11:52:43.206Z,95152.66
2023-01-18T11:54:50.678Z,95155.88
2023-01-18T11:56:58.896Z,95158.59
2023-01-18T11:59:03.355Z,95156.84
2023-01-18T12:01:27.653Z,95158.34
2023-01-18T12:03:50.227Z,95164.19
2023-01-18T12:05:56.376Z,95169.41
2023-01-18T12:08:11.927Z,95167.84
2023-01-18T12:10:21.660Z,95167.75
2023-01-18T12:12:37.657Z,95168.41
2023-01-18T12:14:55.247Z,95172.09
2023-01-18T12:17:19.875Z,95180.59
2023-01-18T12:19:50.675Z,95183.22
2023-01-18T12:22:12.646Z,95185.84
2023-01-18T12:24:28.346Z,95196.06
2023-01-18T12:26:46.959Z,95198.34
2023-01-18T12:29:06.702Z,95209.63
2023-01-18T12:31:21.562Z,95211.47
2023-01-18T12:33:43.759Z,95218.41
2023-01-18T12:36:01.367Z,95220.97
2023-01-18T12:38:17.145Z,95222.81
2023-01-18T12:40:46.567Z,95228.78
2023-01-18T12:42:58.646Z,95227.06
2023-01-18T12:45:16.625Z,95223.59
2023-01-18T12:47:32.763Z,95234.66
2023-01-18T12:49:41.218Z,95231.66
2023-01-18T12:51:46.352Z,95233.06
2023-01-18T12:53:51.874Z,95234.91
2023-01-18T12:55:56.254Z,95239.19
2023-01-18T12:58:02.089Z,95243.53
2023-01-18T13:00:15.334Z,95239.19
2023-01-18T13:02:28.020Z,95246.84
2023-01-18T13:04:36.658Z,95243.22
2023-01-18T13:06:40.745Z,95245.06
2023-01-18T13:08:46.721Z,95248.34
2023-01-18T13:10:49.777Z,95253.75
2023-01-18T13:12:54.180Z,95258.09
2023-01-18T13:15:04.993Z,95258.97
2023-01-18T13:17:14.028Z,95258.25
2023-01-18T13:19:24.613Z,95260.72
2023-01-18T13:21:41.129Z,95266.22
2023-01-18T13:23:53.598Z,95270.38
2023-01-18T13:26:04.511Z,95272.13
2023-01-18T13:28:18.815Z,95273.69
2023-01-18T13:30:21.765Z,95274.66
2023-01-18T13:32:34.456Z,95280.56
2023-01-18T13:34:48.005Z,95280.63
2023-01-18T13:36:51.263Z,95290.28
2023-01-18T13:38:57.775Z,95295.44
2023-01-18T13:41:02.686Z,95293.69
2023-01-18T13:43:06.504Z,95301.28
2023-01-18T13:45:21.014Z,95301.88
2023-01-18T13:47:49.889Z,95308.25
2023-01-18T13:49:52.509Z,95315.97
2023-01-18T13:51:57.473Z,95309.13
2023-01-18T13:54:00.150Z,95314.28
2023-01-18T13:56:34.295Z,95316.84
2023-01-18T13:58:38.218Z,95318.31
2023-01-18T14:00:48.219Z,95333.69
2023-01-18T14:02:56.702Z,95337.16
2023-01-18T14:05:05.237Z,95337.97
2023-01-18T14:07:17.600Z,95344.63
2023-01-18T14:09:33.090Z,95350.81
2023-01-18T14:11:38.192Z,95360.19
2023-01-18T14:14:08.262Z,95365.53
2023-01-18T14:16:17.907Z,95360.25
2023-01-18T14:18:27.142Z,95364.59
2023-01-18T14:21:02.371Z,95369.69
2023-01-18T14:23:25.211Z,95369.63
2023-01-18T14:25:52.750Z,95370.41
2023-01-18T14:28:15.157Z,95377.41
2023-01-18T14:30:25.535Z,95378.91
2023-01-18T14:32:34.288Z,95390.13
2023-01-18T14:34:40.533Z,95388.16
2023-01-18T14:36:43.360Z,95401.81
2023-01-18T14:38:45.926Z,95403.69
2023-01-18T14:40:50.524Z,95405.53
2023-01-18T14:42:55.854Z,95403.72
2023-01-18T14:44:59.289Z,95411.25
2023-01-18T14:47:18.653Z,95411.38
2023-01-18T14:49:27.944Z,95418.91
2023-01-18T14:51:32.202Z,95423.16
2023-01-18T14:53:47.307Z,95425.78
2023-01-18T14:56:06.923Z,95429.19
2023-01-18T14:58:15.547Z,95429.25
2023-01-18T15:00:19.982Z,95429.31
2023-01-18T15:02:27.070Z,95442.22
2023-01-18T15:04:32.827Z,95441.38
2023-01-18T15:06:41.324Z,95449.03
2023-01-18T15:08:46.340Z,95450.63
2023-01-18T15:10:49.428Z,95457.50
2023-01-18T15:12:55.265Z,95465.16
2023-01-18T15:15:04.799Z,95466.06
2023-01-18T15:17:09.751Z,95471.09
2023-01-18T15:19:18.560Z,95467.53
2023-01-18T15:21:24.538Z,95475.28
2023-01-18T15:23:29.626Z,95484.75
2023-01-18T15:25:33.799Z,95481.28
2023-01-18T15:27:37.118Z,95496.88
2023-01-18T15:29:39.877Z,95497.00
2023-01-18T15:31:54.589Z,95495.25
2023-01-18T15:33:57.510Z,95500.50
2023-01-18T15:36:02.155Z,95503.16
2023-01-18T15:38:05.670Z,95506.56
2023-01-18T15:40:30.896Z,95507.47
2023-01-18T15:42:39.174Z,95507.41
2023-01-18T15:44:46.368Z,95514.25
2023-01-18T15:46:49.089Z,95520.31
2023-01-18T15:48:54.468Z,95524.63
2023-01-18T15:51:05.242Z,95528.94
2023-01-18T15:53:11.899Z,95533.25
2023-01-18T15:55:25.154Z,95531.47
2023-01-18T15:57:28.069Z,95529.72
2023-01-18T15:59:30.703Z,95534.84
2023-01-18T16:01:34.884Z,95535.88
2023-01-18T16:03:40.069Z,95542.63
2023-01-18T16:05:42.662Z,95541.88
2023-01-18T16:07:45.204Z,95541.13
2023-01-18T16:09:47.984Z,95544.50
2023-01-18T16:11:54.219Z,95546.28
2023-01-18T16:13:58.867Z,95549.81
2023-01-18T16:16:09.369Z,95555.06
2023-01-18T16:18:14.533Z,95558.50
2023-01-18T16:20:17.860Z,95563.75
2023-01-18T16:22:22.985Z,95557.88
2023-01-18T16:24:31.155Z,95554.50
2023-01-18T16:26:33.773Z,95564.03
2023-01-18T16:28:37.761Z,95561.50
2023-01-18T16:30:41.149Z,95565.81
2023-01-18T16:32:43.722Z,95564.22
2023-01-18T16:34:46.245Z,95565.22
2023-01-18T16:36:49.233Z,95573.81
2023-01-18T16:38:51.852Z,95572.91
2023-01-18T16:40:55.286Z,95583.25
2023-01-18T16:43:01.400Z,95583.31
2023-01-18T16:45:08.632Z,95585.81
2023-01-18T16:47:13.065Z,95588.44
2023-01-18T16:49:16.739Z,95585.13
2023-01-18T16:51:19.304Z,95590.31
2023-01-18T16:53:21.845Z,95593.75
2023-01-18T16:55:24.579Z,95597.22
2023-01-18T16:57:29.678Z,95598.13
2023-01-18T16:59:32.246Z,95603.28
2023-01-18T17:01:36.288Z,95602.47
2023-01-18T17:03:39.529Z,95610.97
2023-01-18T17:05:42.162Z,95612.75
2023-01-18T17:07:45.332Z,95612.75
2023-01-18T17:09:49.333Z,95615.31
2023-01-18T17:11:52.963Z,95623.03
2023-01-18T17:13:55.590Z,95623.03
2023-01-18T17:15:58.131Z,95628.22
2023-01-18T17:18:02.228Z,95629.06
2023-01-18T17:20:17.372Z,95638.50
2023-01-18T17:22:19.928Z,95638.56
2023-01-18T17:24:23.983Z,95638.50
2023-01-18T17:26:26.519Z,95649.63
2023-01-18T17:28:29.371Z,95646.97
2023-01-18T17:30:32.753Z,95652.97
2023-01-18T17:32:35.490Z,95649.59
2023-01-18T17:34:39.498Z,95658.16
2023-01-18T17:36:42.056Z,95666.75
2023-01-18T17:38:44.634Z,95670.09
2023-01-18T17:40:47.381Z,95668.47
2023-01-18T17:42:51.770Z,95666.78
2023-01-18T17:45:02.362Z,95675.34
2023-01-18T17:47:05.002Z,95681.31
2023-01-18T17:49:07.895Z,95682.94
2023-01-18T17:51:13.436Z,95685.53
2023-01-18T17:53:16.045Z,95691.56
2023-01-18T17:55:24.326Z,95692.38
2023-01-18T17:57:30.127Z,95701.78
2023-01-18T17:59:32.725Z,95700.06
2023-01-18T18:01:35.516Z,95709.50
2023-01-18T18:03:38.990Z,95712.94
2023-01-18T18:05:41.566Z,95707.78
2023-01-18T18:07:45.622Z,95716.31
2023-01-18T18:09:48.162Z,95720.59
2023-01-18T18:11:50.889Z,95731.69
2023-01-18T18:13:54.244Z,95726.59
2023-01-18T18:15:57.077Z,95729.97
2023-01-18T18:17:59.700Z,95736.88
2023-01-18T18:20:02.416Z,95739.38
2023-01-18T18:22:06.047Z,95747.97
2023-01-18T18:24:10.309Z,95748.81
2023-01-18T18:26:12.882Z,95758.25
2023-01-18T18:28:15.447Z,95759.25
2023-01-18T18:30:18.989Z,95757.56
2023-01-18T18:32:21.570Z,95769.56
2023-01-18T18:34:24.511Z,95771.28
2023-01-18T18:36:27.913Z,95772.91
2023-01-18T18:38:30.647Z,95774.66
2023-01-18T18:40:34.552Z,95781.38
2023-01-18T18:42:37.067Z,95783.13
2023-01-18T18:44:39.631Z,95784.00
2023-01-18T18:46:42.215Z,95787.50
2023-01-18T18:48:44.830Z,95786.66
2023-01-18T18:50:48.190Z,95792.72
2023-01-18T18:52:50.777Z,95792.69
2023-01-18T18:54:53.385Z,95795.19
2023-01-18T18:57:00.676Z,95798.56
2023-01-18T18:59:03.236Z,95802.78
2023-01-18T19:01:06.144Z,95808.84
2023-01-18T19:03:09.232Z,95809.69
2023-01-18T19:05:12.242Z,95816.53
2023-01-18T19:07:14.964Z,95828.63
2023-01-18T19:09:17.525Z,95830.34
2023-01-18T19:11:20.761Z,95828.69
2023-01-18T19:13:24.672Z,95833.00
2023-01-18T19:15:27.284Z,95844.09
2023-01-18T19:17:31.569Z,95843.19
2023-01-18T19:19:34.441Z,95848.47
2023-01-18T19:21:38.650Z,95853.75
2023-01-18T19:23:41.184Z,95852.00
2023-01-18T19:25:43.758Z,95857.22
2023-01-18T19:27:46.724Z,95862.28
2023-01-18T19:29:52.618Z,95864.06
2023-01-18T19:31:55.624Z,95865.81
2023-01-18T19:33:58.644Z,95858.19
2023-01-18T19:36:08.252Z,95860.78
2023-01-18T19:38:11.485Z,95857.81
2023-01-18T19:40:15.278Z,95864.09
2023-01-18T19:42:17.835Z,95863.16
2023-01-18T19:44:20.494Z,95865.00
2023-01-18T19:46:24.411Z,95859.69
2023-01-18T19:48:26.988Z,95876.16
2023-01-18T19:50:30.964Z,95878.88
2023-01-18T19:52:33.963Z,95878.94
2023-01-18T19:54:36.556Z,95879.69
2023-01-18T19:56:39.272Z,95885.81
2023-01-18T19:58:42.119Z,95883.25
2023-01-18T20:00:44.667Z,95888.47
2023-01-18T20:02:48.804Z,95894.53
2023-01-18T20:04:52.071Z,95904.88
2023-01-18T20:06:54.704Z,95900.66
2023-01-18T20:08:57.416Z,95907.47
2023-01-18T20:11:04.819Z,95911.88
2023-01-18T20:13:07.436Z,95905.91
2023-01-18T20:15:10.318Z,95906.84
2023-01-18T20:17:14.344Z,95907.72
2023-01-18T20:19:19.167Z,95916.28
2023-01-18T20:21:22.389Z,95916.31
2023-01-18T20:23:24.926Z,95926.59
2023-01-18T20:25:30.064Z,95923.28
2023-01-18T20:27:32.683Z,95925.81
2023-01-18T20:29:35.246Z,95925.00
2023-01-18T20:31:39.755Z,95927.56
2023-01-18T20:33:42.743Z,95929.31
2023-01-18T20:35:47.292Z,95935.38
2023-01-18T20:37:49.888Z,95931.94
2023-01-18T20:39:52.880Z,95942.16
2023-01-18T20:41:55.401Z,95938.75
2023-01-18T20:43:58.031Z,95947.34
2023-01-18T20:46:01.963Z,95944.75
2023-01-18T20:48:05.899Z,95946.59
2023-01-18T20:50:09.885Z,95948.34
2023-01-18T20:52:14.162Z,95951.78
2023-01-18T20:54:19.870Z,95955.28
2023-01-18T20:56:29.085Z,95957.06
2023-01-18T20:58:32.339Z,95961.44
2023-01-18T21:00:34.998Z,95963.13
2023-01-18T21:02:37.569Z,95969.22
2023-01-18T21:04:40.528Z,95974.31
2023-01-18T21:06:44.744Z,95969.28
2023-01-18T21:08:48.679Z,95974.44
2023-01-18T21:10:51.426Z,95976.16
2023-01-18T21:12:53.983Z,95975.31
2023-01-18T21:14:56.519Z,95977.06
2023-01-18T21:16:59.093Z,95982.25
2023-01-18T21:19:01.708Z,95992.56
2023-01-18T21:21:04.561Z,95987.47
2023-01-18T21:23:07.150Z,95990.03
2023-01-18T21:25:11.343Z,95991.75
2023-01-18T21:27:13.936Z,95998.56
2023-01-18T21:29:16.484Z,96001.16
2023-01-18T21:31:19.132Z,96001.97
2023-01-18T21:33:22.053Z,96004.56
2023-01-18T21:35:24.617Z,96006.41
2023-01-18T21:37:27.786Z,96003.88
2023-01-18T21:39:30.378Z,96003.09
2023-01-18T21:41:51.686Z,96007.38
2023-01-18T21:44:12.704Z,96006.56
2023-01-18T21:46:15.522Z,96008.31
2023-01-18T21:48:18.096Z,96002.38
2023-01-18T21:50:38.491Z,96009.34
2023-01-18T21:52:58.497Z,96018.84
2023-01-18T21:55:01.102Z,96015.44
2023-01-18T21:57:06.080Z,96018.00
2023-01-18T21:59:07.620Z,96024.88
2023-01-18T22:01:11.643Z,96023.13
2023-01-18T22:03:15.322Z,96030.03
2023-01-18T22:05:16.894Z,96031.00
2023-01-18T22:07:19.427Z,96031.03
2023-01-18T22:09:22.268Z,96038.72
2023-01-18T22:11:24.839Z,96039.69
2023-01-18T22:13:28.743Z,96040.59
2023-01-18T22:15:31.275Z,96045.69
2023-01-18T22:17:33.898Z,96049.19
2023-01-18T22:19:36.537Z,96051.78
2023-01-18T22:21:39.232Z,96057.75
2023-01-18T22:23:41.774Z,96055.22
2023-01-18T22:25:44.348Z,96059.56
2023-01-18T22:27:47.221Z,96066.41
2023-01-18T22:29:51.193Z,96072.44
2023-01-18T22:31:56.227Z,96075.88
2023-01-18T22:33:58.910Z,96071.66
2023-01-18T22:36:01.615Z,96075.13
2023-01-18T22:38:04.432Z,96071.78
2023-01-18T22:40:08.722Z,96078.63
2023-01-18T22:42:11.285Z,96078.69
2023-01-18T22:44:16.683Z,96081.25
2023-01-18T22:46:21.829Z,96086.44
2023-01-18T22:48:25.013Z,96085.63
2023-01-18T22:50:27.577Z,96089.09
2023-01-18T22:52:30.149Z,96091.69
2023-01-18T22:54:32.707Z,96086.56
2023-01-18T22:56:35.627Z,96090.09
2023-01-18T22:58:38.204Z,96086.72
2023-01-18T23:00:42.949Z,96084.19
2023-01-18T23:02:46.847Z,96092.72
2023-01-18T23:04:49.393Z,96097.06
2023-01-18T23:06:54.570Z,96090.25
2023-01-18T23:08:57.378Z,96097.91
2023-01-18T23:10:59.959Z,96097.84
2023-01-18T23:13:02.594Z,96097.00
2023-01-18T23:15:23.357Z,96098.69
2023-01-18T23:17:39.975Z,96095.34
2023-01-18T23:19:43.999Z,96102.19
2023-01-18T23:21:46.598Z,96102.19
2023-01-18T23:23:49.349Z,96103.94
2023-01-18T23:25:55.500Z,96104.00
2023-01-18T23:28:03.180Z,96102.28
2023-01-18T23:30:06.824Z,96115.97
2023-01-18T23:32:09.578Z,96109.19
2023-01-18T23:34:12.194Z,96112.59
2023-01-18T23:36:16.182Z,96110.91
2023-01-18T23:38:18.718Z,96113.50
2023-01-18T23:40:38.966Z,96114.28
2023-01-18T23:42:59.114Z,96116.00
2023-01-18T23:45:19.048Z,96112.53
2023-01-18T23:47:39.110Z,96109.16
2023-01-18T23:49:59.385Z,96119.41
2023-01-18T23:52:20.698Z,96121.13
2023-01-18T23:54:23.411Z,96124.53
2023-01-18T23:56:26.169Z,96124.56
2023-01-18T23:58:28.975Z,96121.97
